createdAt,value
2022-11-25T00:04:57.603Z,138.00
2022-11-25T00:09:59.894Z,151.07
2022-11-25T00:15:02.293Z,157.33
2022-11-25T00:20:06.561Z,227.57
2022-11-25T00:25:09.318Z,142.80
2022-11-25T00:30:11.991Z,134.67
2022-11-25T00:35:14.410Z,150.83
2022-11-25T00:40:17.083Z,120.07
2022-11-25T00:45:19.408Z,118.50
2022-11-25T00:50:21.870Z,197.13
2022-11-25T00:55:24.328Z,116.47
2022-11-25T01:00:26.668Z,169.10
2022-11-25T01:05:28.986Z,136.23
2022-11-25T01:10:31.306Z,137.67
2022-11-25T01:15:37.482Z,132.83
2022-11-25T01:20:39.998Z,130.27
2022-11-25T01:25:42.329Z,144.33
2022-11-25T01:30:44.687Z,155.87
2022-11-25T01:35:48.715Z,118.90
2022-11-25T01:40:51.059Z,103.83
2022-11-25T01:45:57.427Z,104.60
2022-11-25T01:50:59.898Z,98.40
2022-11-25T01:56:04.063Z,106.93
2022-11-25T02:01:09.493Z,108.27
2022-11-25T02:06:21.958Z,92.63
2022-11-25T02:11:28.647Z,107.43
2022-11-25T02:16:31.022Z,113.57
2022-11-25T02:21:49.959Z,113.03
2022-11-25T02:26:52.615Z,107.87
2022-11-25T02:31:56.818Z,94.03
2022-11-25T02:37:01.396Z,92.63
2022-11-25T02:42:08.133Z,95.23
2022-11-25T02:47:10.786Z,84.67
2022-11-25T02:52:14.167Z,83.47
2022-11-25T02:57:17.697Z,87.77
2022-11-25T03:02:20.167Z,87.20
2022-11-25T03:07:22.660Z,88.23
2022-11-25T03:12:25.530Z,89.97
2022-11-25T03:17:28.709Z,83.17
2022-11-25T03:22:31.368Z,77.53
2022-11-25T03:27:34.548Z,78.27
2022-11-25T03:32:37.590Z,80.30
2022-11-25T03:37:41.317Z,97.60
2022-11-25T03:42:44.517Z,87.87
2022-11-25T03:47:47.287Z,95.17
2022-11-25T03:52:49.679Z,86.20
2022-11-25T03:57:53.171Z,102.07
2022-11-25T04:02:56.741Z,89.50
2022-11-25T04:07:59.205Z,108.23
2022-11-25T04:13:02.500Z,82.70
2022-11-25T04:18:11.466Z,94.27
2022-11-25T04:23:15.474Z,103.70
2022-11-25T04:28:29.033Z,86.40
2022-11-25T04:33:32.536Z,83.97
2022-11-25T04:38:35.269Z,91.40
2022-11-25T04:43:39.361Z,88.93
2022-11-25T04:48:46.395Z,88.87
2022-11-25T04:53:50.803Z,79.00
2022-11-25T04:59:11.875Z,91.33
2022-11-25T05:04:21.309Z,101.33
2022-11-25T05:09:24.374Z,81.10
2022-11-25T05:14:38.157Z,113.87
2022-11-25T05:19:41.060Z,96.80
2022-11-25T05:24:44.116Z,92.43
2022-11-25T05:29:52.799Z,90.27
2022-11-25T05:34:59.140Z,110.70
2022-11-25T05:40:01.601Z,84.70
2022-11-25T05:45:27.095Z,94.77
2022-11-25T05:50:29.551Z,80.77
2022-11-25T05:56:04.686Z,168.07
2022-11-25T06:01:25.392Z,95.43
2022-11-25T06:06:28.347Z,81.03
2022-11-25T06:11:30.815Z,88.77
2022-11-25T06:16:33.380Z,105.23
2022-11-25T06:21:45.021Z,85.90
2022-11-25T06:26:48.896Z,103.63
2022-11-25T06:31:51.301Z,106.93
2022-11-25T06:37:09.847Z,93.30
2022-11-25T06:42:12.275Z,78.17
2022-11-25T06:47:14.684Z,98.47
2022-11-25T06:52:17.034Z,89.80
2022-11-25T06:57:19.838Z,101.40
2022-11-25T07:02:22.209Z,105.43
2022-11-25T07:07:24.621Z,109.70
2022-11-25T07:12:27.014Z,108.03
2022-11-25T07:17:29.321Z,97.03
2022-11-25T07:22:31.913Z,96.60
2022-11-25T07:27:34.493Z,117.73
2022-11-25T07:32:36.895Z,86.27
2022-11-25T07:37:39.411Z,100.70
2022-11-25T07:42:41.837Z,130.37
2022-11-25T07:47:45.205Z,100.80
2022-11-25T07:52:47.547Z,91.30
2022-11-25T07:57:49.952Z,96.33
2022-11-25T08:02:53.474Z,102.03
2022-11-25T08:07:56.187Z,211.10
2022-11-25T08:12:58.597Z,125.60
2022-11-25T08:18:00.934Z,125.67
2022-11-25T08:23:03.447Z,113.10
2022-11-25T08:28:06.139Z,131.23
2022-11-25T08:33:08.582Z,137.33
2022-11-25T08:38:15.546Z,119.13
2022-11-25T08:43:18.439Z,124.60
2022-11-25T08:48:21.337Z,140.90
2022-11-25T08:53:23.743Z,119.53
2022-11-25T08:58:26.138Z,114.33
2022-11-25T09:03:32.721Z,126.47
2022-11-25T09:08:35.971Z,118.40
2022-11-25T09:13:38.868Z,112.03
2022-11-25T09:18:41.345Z,116.40
2022-11-25T09:23:44.265Z,131.97
2022-11-25T09:28:47.026Z,145.83
2022-11-25T09:33:49.703Z,140.00
2022-11-25T09:38:52.714Z,128.30
2022-11-25T09:44:30.159Z,128.23
2022-11-25T09:49:47.473Z,125.87
2022-11-25T09:55:12.815Z,125.60
2022-11-25T10:00:18.810Z,107.67
2022-11-25T10:06:04.172Z,113.67
2022-11-25T10:11:30.952Z,206.30
2022-11-25T10:16:38.526Z,225.43
2022-11-25T10:21:41.191Z,133.87
2022-11-25T10:26:46.864Z,81.90
2022-11-25T10:31:52.136Z,87.90
2022-11-25T10:36:57.136Z,109.13
2022-11-25T10:42:20.647Z,102.73
2022-11-25T10:47:56.881Z,107.83
2022-11-25T10:53:12.965Z,108.30
2022-11-25T10:58:35.043Z,126.60
2022-11-25T11:03:37.591Z,162.30
2022-11-25T11:08:43.748Z,137.47
2022-11-25T11:13:47.404Z,135.67
2022-11-25T11:18:51.602Z,147.90
2022-11-25T11:23:55.404Z,144.47
2022-11-25T11:29:15.992Z,129.70
2022-11-25T11:34:48.601Z,135.13
2022-11-25T11:40:18.349Z,130.93
2022-11-25T11:45:49.300Z,141.73
2022-11-25T11:51:02.882Z,161.53
2022-11-25T11:56:34.912Z,145.83
2022-11-25T12:02:14.948Z,550.13
2022-11-25T12:07:40.144Z,225.17
2022-11-25T12:12:50.905Z,219.97
2022-11-25T12:18:01.424Z,155.73
2022-11-25T12:23:28.426Z,171.80
2022-11-25T12:28:39.143Z,136.30
2022-11-25T12:33:56.169Z,159.20
2022-11-25T12:39:17.361Z,121.07
2022-11-25T12:44:19.838Z,119.07
2022-11-25T12:49:46.997Z,113.23
2022-11-25T12:55:06.231Z,99.80
2022-11-25T13:00:41.587Z,101.67
2022-11-25T13:06:06.536Z,106.20
2022-11-25T13:11:33.179Z,89.33
2022-11-25T13:16:36.366Z,87.73
2022-11-25T13:21:56.175Z,98.07
2022-11-25T13:26:58.851Z,136.57
2022-11-25T13:32:08.003Z,162.80
2022-11-25T13:37:36.996Z,117.47
2022-11-25T13:42:44.977Z,110.67
2022-11-25T13:47:49.490Z,127.67
2022-11-25T13:53:01.773Z,126.50
2022-11-25T13:58:09.907Z,156.57
2022-11-25T14:03:21.419Z,152.93
2022-11-25T14:08:55.299Z,147.23
2022-11-25T14:14:17.739Z,119.40
2022-11-25T14:19:54.877Z,123.90
2022-11-25T14:25:05.341Z,113.57
2022-11-25T14:30:10.895Z,161.47
2022-11-25T14:35:25.691Z,139.33
2022-11-25T14:40:54.936Z,133.87
2022-11-25T14:46:17.408Z,134.83
2022-11-25T14:51:20.049Z,148.77
2022-11-25T14:56:33.147Z,117.77
2022-11-25T15:01:38.077Z,155.57
2022-11-25T15:06:42.895Z,142.03
2022-11-25T15:11:45.650Z,330.83
2022-11-25T15:16:48.078Z,228.67
2022-11-25T15:27:26.903Z,172.73
2022-11-25T15:32:33.039Z,233.93
2022-11-25T15:37:37.002Z,343.77
2022-11-25T15:42:42.544Z,338.87
2022-11-25T15:47:45.870Z,179.43
2022-11-25T15:52:53.383Z,175.77
2022-11-25T15:57:58.288Z,181.93
2022-11-25T16:03:01.145Z,148.43
2022-11-25T16:08:26.295Z,122.53
2022-11-25T16:13:31.823Z,129.83
2022-11-25T16:19:06.045Z,252.90
2022-11-25T16:24:14.324Z,142.10
2022-11-25T16:29:19.799Z,194.70
2022-11-25T16:34:24.262Z,145.90
2022-11-25T16:39:26.678Z,171.20
2022-11-25T16:44:29.355Z,152.27
2022-11-25T16:49:32.337Z,196.67
2022-11-25T16:54:34.636Z,332.20
2022-11-25T16:59:40.989Z,344.53
2022-11-25T17:04:43.487Z,218.83
2022-11-25T17:09:46.661Z,232.23
2022-11-25T17:14:49.376Z,207.73
2022-11-25T17:19:52.896Z,241.93
2022-11-25T17:24:57.424Z,203.33
2022-11-25T17:30:03.617Z,235.83
2022-11-25T17:35:16.508Z,194.13
2022-11-25T17:40:18.924Z,192.60
2022-11-25T17:45:22.041Z,186.33
2022-11-25T17:50:26.356Z,186.63
2022-11-25T17:55:28.806Z,182.60
2022-11-25T18:00:33.471Z,268.83
2022-11-25T18:05:35.743Z,231.07
2022-11-25T18:10:38.526Z,199.33
2022-11-25T18:15:41.085Z,225.10
2022-11-25T18:20:43.562Z,183.53
2022-11-25T18:25:46.895Z,176.90
2022-11-25T18:30:50.716Z,230.87
2022-11-25T18:35:53.116Z,275.33
2022-11-25T18:40:55.929Z,180.63
2022-11-25T18:45:58.379Z,171.97
2022-11-25T18:51:01.116Z,182.63
2022-11-25T18:56:04.088Z,181.57
2022-11-25T19:01:12.759Z,190.53
2022-11-25T19:06:15.393Z,198.57
2022-11-25T19:11:26.120Z,169.23
2022-11-25T19:16:28.718Z,239.50
2022-11-25T19:21:31.243Z,201.17
2022-11-25T19:26:41.225Z,175.27
2022-11-25T19:31:43.784Z,206.00
2022-11-25T19:36:46.274Z,231.07
2022-11-25T19:41:48.693Z,249.50
2022-11-25T19:52:30.607Z,164.50
2022-11-25T19:57:32.889Z,183.07
2022-11-25T20:02:35.864Z,184.90
2022-11-25T20:07:47.245Z,155.80
2022-11-25T20:12:50.462Z,154.33
2022-11-25T20:17:56.015Z,152.10
2022-11-25T20:23:15.317Z,143.27
2022-11-25T20:28:26.625Z,154.33
2022-11-25T20:33:28.991Z,152.43
2022-11-25T20:38:33.385Z,155.20
2022-11-25T20:43:39.119Z,146.17
2022-11-25T20:48:42.362Z,165.47
2022-11-25T20:53:53.602Z,165.70
2022-11-25T20:58:56.955Z,159.20
2022-11-25T21:03:59.264Z,143.50
2022-11-25T21:09:02.014Z,151.77
2022-11-25T21:14:06.041Z,215.17
2022-11-25T21:19:08.376Z,154.00
2022-11-25T21:24:31.220Z,139.73
2022-11-25T21:29:36.811Z,162.40
2022-11-25T21:34:41.220Z,137.57
2022-11-25T21:39:43.815Z,134.07
2022-11-25T21:44:47.784Z,172.70
2022-11-25T21:49:50.532Z,120.27
2022-11-25T21:54:52.825Z,137.30
2022-11-25T21:59:55.482Z,134.03
2022-11-25T22:04:58.585Z,148.83
2022-11-25T22:10:00.866Z,161.83
2022-11-25T22:15:03.573Z,208.20
2022-11-25T22:20:20.834Z,195.73
2022-11-25T22:25:25.986Z,155.80
2022-11-25T22:30:28.299Z,194.80
2022-11-25T22:35:30.740Z,198.67
2022-11-25T22:40:33.116Z,153.40
2022-11-25T22:45:35.833Z,147.90
2022-11-25T22:50:38.309Z,205.93
2022-11-25T22:55:41.927Z,236.17
2022-11-25T23:00:46.462Z,201.30
2022-11-25T23:05:51.404Z,238.70
2022-11-25T23:10:54.657Z,256.13
2022-11-25T23:15:59.940Z,224.40
2022-11-25T23:21:02.416Z,197.63
2022-11-25T23:26:06.847Z,184.33
2022-11-25T23:31:14.464Z,230.47
2022-11-25T23:36:28.379Z,197.07
2022-11-25T23:41:33.292Z,186.43
2022-11-25T23:46:37.145Z,242.90
2022-11-25T23:51:39.462Z,187.30
2022-11-25T23:56:42.060Z,222.60
